Marlboro, Massachusetts
Current Conditions -  °F | °C
As of 8:56 AM on Monday 20 Oct 2014 (Local Time) from KBED Reporting Station
Clear Clear  
Wind Chill: 33°   Ceiling: Unl
Heat Index: 39°   Visibility: 10mi
Dew Point: 28°   Wind: 8mph
Humidity: 65%   Direction: 240°WSW
Pressure: 30.06"   Gusts: NA
Location:  42.3495°N, 71.5482°W
Report Text: KBED 201256Z 24007KT 10SM CLR 04/M02 A3006 RMK AO2 SLP192 T00391022
Loading
Personal Weather Stations






























Interactive Weather Map
Tropical Storm Tracking
New forecast layout! Learn more

10-Day Weather Forecast

Advertisements
Track Severe Weather on mobile